Vancouver, WA (98660)

2:06 PM PDT on August 30, 2015 (GMT -0700)
Hazel Dell/W7BP | | Change Station
CLOSE
Current Station
Personal Weather Station
Location: Vancouver, WA
Elevation: 157 ft
Nearby Weather Stations

Elev 157 ft 45.67 °N, 122.67 °W | Updated 0 second ago

Overcast
Overcast
63.4 °F
Feels Like 63.4 °F
N
2.9
Wind Variable Wind from East
Gusts 2.9 mph

Today
High -- | Low -- °F
--% Chance of Precip.
Yesterday
High -- | Low -- °F
Precip. -- in
6:29 AM 7:52 PM
Full, 98% visible
Pressure 30.00 in
Visibility 10.0 miles
Clouds Few 3000 ft
Mostly Cloudy 3600 ft
Overcast 4800 ft
Dew Point 60 °F
Humidity 87%
Rainfall 0.20 in
Snow Depth Not available.
UV 2 out of 12
Pollen .50 out of 12
Air Quality Not available.
Flu Activity Not available.
METAR KVUO 302053Z AUTO 32005KT 10SM FEW030 BKN036 OVC048 19/12 A3000 RMK AO2 SLP157 P0001 60001 T01890122 53004
Pressure 30.00 in
Visibility 10.0 miles
Clouds Few 3000 ft
Mostly Cloudy 3600 ft
Overcast 4800 ft
Dew Point 60 °F
Humidity 87%
Rainfall 0.20 in
Snow Depth Not available.
UV 2 out of 12
Pollen .50 out of 12
Air Quality Not available.
Flu Activity Not available.
METAR KVUO 302053Z AUTO 32005KT 10SM FEW030 BKN036 OVC048 19/12 A3000 RMK AO2 SLP157 P0001 60001 T01890122 53004
Nowcast | as of 1:49 PM PDT on August 30, 2015

At 141 PM PDT...National Weather Service Doppler radar indicated a line of heavy showers near Battle Ground. These showers are moving northeast at 20 mph. These heavy showers contain heavy rain and local cameras show that localized flooding has occurred on Interstate 5. Expect ponding of water on roadway in Clark County between Hazel Dell and Hockinson. Additional showers are developing west of Portland and may produce additional localized heavy rainfall in the impacted areas. Motorists should be aware of potential water over roadways and exercise caution while traveling. Locations impacted include... Battle Ground...Vancouver... ...Portland...Beaverton...Tigard...Camas...Yacolt...Maywood Park...Orchards...Mill Plain...Garden Home...Salmon Creek... and Larch Mountain.

×

10-Day Weather Forecast

×

Almanac

Astronomy

Aug. 30, 2015 Rise Set
Actual Time
Civil Twilight
Nautical Twilight
Astronomical Twilight
Moon
Length of Visible Light
Length of Day
Tomorrow will be .
, % of the Moon is Illuminated

Today's Extremes

State Highs State Lows

Community

WunderPhotos

Upload Photos

1,851,060 photos uploaded!

WunderBlogs® & News

Nearby

Air Quality

  Air Quality AQ Index Pollutant
Not available.

Snow Depth

Station Depth Elevation

Earthquake Activity

City Distance Mag. Time & Date
Minimum magnitude displayed is 2.5.

Coastal Water Temperatures

Place Temperature

Stations

Nearby Weather Stations

Station Location Temp. Windchill Dew Point Humidity Wind Precip. Elev Updated Type